createdAt,value
2023-04-22T00:02:14.064Z,95082.13
2023-04-22T00:04:41.251Z,95080.84
2023-04-22T00:07:08.609Z,95081.92
2023-04-22T00:09:35.555Z,95084.70
2023-04-22T00:12:02.521Z,95087.84
2023-04-22T00:14:29.335Z,95082.92
2023-04-22T00:16:56.787Z,95085.98
2023-04-22T00:19:24.095Z,95079.58
2023-04-22T00:21:50.803Z,95077.40
2023-04-22T00:24:17.574Z,95074.68
2023-04-22T00:26:44.196Z,95076.00
2023-04-22T00:29:10.948Z,95074.80
2023-04-22T00:31:37.726Z,95077.25
2023-04-22T00:34:04.637Z,95078.85
2023-04-22T00:36:31.433Z,95075.84
2023-04-22T00:38:58.130Z,95080.04
2023-04-22T00:41:25.764Z,95079.31
2023-04-22T00:43:52.950Z,95077.59
2023-04-22T00:46:20.258Z,95079.09
2023-04-22T00:48:46.937Z,95083.48
2023-04-22T00:51:13.572Z,95079.70
2023-04-22T00:53:40.292Z,95077.46
2023-04-22T00:56:07.230Z,95080.27
2023-04-22T00:58:34.278Z,95078.05
2023-04-22T01:01:01.105Z,95073.89
2023-04-22T01:03:30.014Z,95079.39
2023-04-22T01:05:57.717Z,95079.28
2023-04-22T01:08:27.913Z,95078.52
2023-04-22T01:10:55.288Z,95081.62
2023-04-22T01:13:21.966Z,95084.01
2023-04-22T01:15:49.129Z,95083.63
2023-04-22T01:18:16.323Z,95085.41
2023-04-22T01:20:43.077Z,95084.30
2023-04-22T01:23:18.525Z,95084.52
2023-04-22T01:25:45.694Z,95083.27
2023-04-22T01:28:12.899Z,95087.57
2023-04-22T01:30:40.536Z,95091.30
2023-04-22T01:33:08.932Z,95091.04
2023-04-22T01:35:36.978Z,95092.48
2023-04-22T01:38:04.642Z,95093.23
2023-04-22T01:40:32.178Z,95096.52
2023-04-22T01:42:59.937Z,95095.26
2023-04-22T01:45:29.623Z,95094.93
2023-04-22T01:47:56.584Z,95098.08
2023-04-22T01:50:23.421Z,95101.55
2023-04-22T01:52:50.426Z,95102.13
2023-04-22T01:55:17.136Z,95096.08
2023-04-22T01:57:43.994Z,95099.45
2023-04-22T02:00:10.976Z,95098.64
2023-04-22T02:02:42.967Z,95102.29
2023-04-22T02:05:11.188Z,95102.07
2023-04-22T02:07:37.975Z,95103.89
2023-04-22T02:10:05.631Z,95105.55
2023-04-22T02:12:32.391Z,95105.66
2023-04-22T02:14:59.135Z,95106.73
2023-04-22T02:17:26.660Z,95106.89
2023-04-22T02:19:53.611Z,95108.99
2023-04-22T02:22:21.451Z,95106.73
2023-04-22T02:24:50.910Z,95098.55
2023-04-22T02:27:17.588Z,95101.03
2023-04-22T02:29:45.673Z,95098.27
2023-04-22T02:32:12.502Z,95099.30
2023-04-22T02:34:39.272Z,95097.38
2023-04-22T02:37:06.273Z,95091.01
2023-04-22T02:39:33.024Z,95090.87
2023-04-22T02:42:01.243Z,95095.66
2023-04-22T02:44:28.088Z,95094.00
2023-04-22T02:46:55.146Z,95096.81
2023-04-22T02:49:21.936Z,95096.77
2023-04-22T02:51:48.671Z,95093.98
2023-04-22T02:54:15.575Z,95092.82
2023-04-22T02:56:42.365Z,95097.89
2023-04-22T02:59:09.123Z,95098.90
2023-04-22T03:01:35.925Z,95095.00
2023-04-22T03:04:03.623Z,95098.08
2023-04-22T03:06:31.236Z,95098.59
2023-04-22T03:08:58.142Z,95101.52
2023-04-22T03:11:25.106Z,95101.15
2023-04-22T03:13:51.949Z,95102.52
2023-04-22T03:16:22.415Z,95101.09
2023-04-22T03:18:49.799Z,95101.25
2023-04-22T03:21:16.481Z,95104.13
2023-04-22T03:23:43.276Z,95103.17
2023-04-22T03:26:11.496Z,95105.77
2023-04-22T03:28:39.034Z,95107.69
2023-04-22T03:31:05.851Z,95111.66
2023-04-22T03:33:32.629Z,95118.21
2023-04-22T03:36:05.274Z,95123.53
2023-04-22T03:38:32.505Z,95123.48
2023-04-22T03:40:59.245Z,95125.83
2023-04-22T03:43:35.004Z,95126.17
2023-04-22T03:46:06.424Z,95125.27
2023-04-22T03:48:35.348Z,95127.84
2023-04-22T03:51:03.455Z,95130.05
2023-04-22T03:53:32.465Z,95134.69
2023-04-22T03:55:59.392Z,95134.48
2023-04-22T03:58:26.355Z,95141.91
2023-04-22T04:00:53.376Z,95142.29
2023-04-22T04:03:20.332Z,95142.36
2023-04-22T04:05:49.392Z,95140.98
2023-04-22T04:08:16.091Z,95143.17
2023-04-22T04:10:43.082Z,95146.27
2023-04-22T04:13:09.906Z,95146.45
2023-04-22T04:15:57.892Z,95144.05
2023-04-22T04:18:26.437Z,95151.79
2023-04-22T04:20:53.978Z,95158.46
2023-04-22T04:23:20.704Z,95154.08
2023-04-22T04:25:47.782Z,95159.80
2023-04-22T04:28:14.855Z,95155.25
2023-04-22T04:30:41.817Z,95159.39
2023-04-22T04:33:09.461Z,95162.45
2023-04-22T04:35:37.459Z,95157.71
2023-04-22T04:38:05.684Z,95161.88
2023-04-22T04:40:33.404Z,95164.45
2023-04-22T04:43:09.424Z,95163.35
2023-04-22T04:45:48.693Z,95162.34
2023-04-22T04:48:19.382Z,95165.73
2023-04-22T04:50:53.168Z,95169.20
2023-04-22T04:53:21.200Z,95165.70
2023-04-22T04:55:48.196Z,95165.50
2023-04-22T04:58:20.027Z,95168.02
2023-04-22T05:00:48.618Z,95169.45
2023-04-22T05:03:17.919Z,95169.84
2023-04-22T05:05:47.765Z,95169.18
2023-04-22T05:08:14.932Z,95169.17
2023-04-22T05:10:42.837Z,95171.87
2023-04-22T05:13:11.543Z,95170.23
2023-04-22T05:15:40.885Z,95166.78
2023-04-22T05:18:08.347Z,95170.94
2023-04-22T05:20:36.315Z,95171.05
2023-04-22T05:23:06.372Z,95173.05
2023-04-22T05:25:35.172Z,95177.84
2023-04-22T05:28:06.702Z,95174.17
2023-04-22T05:30:40.750Z,95172.27
2023-04-22T05:33:08.589Z,95170.82
2023-04-22T05:35:35.933Z,95169.23
2023-04-22T05:38:03.203Z,95167.42
2023-04-22T05:40:31.337Z,95167.88
2023-04-22T05:43:00.817Z,95165.79
2023-04-22T05:45:28.351Z,95166.39
2023-04-22T05:47:55.959Z,95160.83
2023-04-22T05:50:23.500Z,95159.66
2023-04-22T05:52:59.362Z,95157.36
2023-04-22T05:55:29.522Z,95157.90
2023-04-22T05:57:56.961Z,95164.05
2023-04-22T06:00:43.619Z,95157.40
2023-04-22T06:03:33.699Z,95163.81
2023-04-22T06:06:06.308Z,95165.41
2023-04-22T06:08:33.808Z,95167.38
2023-04-22T06:11:01.290Z,95168.35
2023-04-22T06:13:31.077Z,95170.27
2023-04-22T06:16:01.401Z,95174.41
2023-04-22T06:18:30.386Z,95167.88
2023-04-22T06:20:58.209Z,95164.13
2023-04-22T06:23:29.381Z,95171.04
2023-04-22T06:25:59.332Z,95170.83
2023-04-22T06:28:27.661Z,95170.40
2023-04-22T06:31:01.310Z,95171.39
